Weather reports worldwide

Advertisment
Bielsa, Spain (8103): temperature & dewpoint: 06.12.2019 17:00:00 - 12.12.2019 17:00:00 (CET)Bielsa, Spain (8103): wind speed & gusts: 06.12.2019 17:00:00 - 12.12.2019 17:00:00 (CET)Bielsa, Spain (8103): wind direction: 06.12.2019 17:00:00 - 12.12.2019 17:00:00 (CET)Bielsa, Spain (8103): visibility: 06.12.2019 17:00:00 - 12.12.2019 17:00:00 (CET)Bielsa, Spain (8103): sunshine duration: 06.12.2019 17:00:00 - 12.12.2019 17:00:00 (CET)Bielsa, Spain (8103): precipitation: 06.12.2019 17:00:00 - 12.12.2019 17:00:00 (CET)
Date & Time tt [°C] td [°C] ff [km/h] ff [kn] fx [km/h] fx [kn] dd vv [km] sd [min] rr [mm]
12.12.2019 17:00:00 - - - - - - - - - -
12.12.2019 16:00:00 3,5 1,5 9 5 35 19 SE 12 0 0,6
12.12.2019 15:00:00 3,9 1,7 7 4 22 12 SE 11 0 1,0
12.12.2019 14:00:00 4,4 1,9 6 3 35 19 SE 12 0 0,4
12.12.2019 13:00:00 5,1 1,3 13 7 36 19 ESE 20 5 -
12.12.2019 12:00:00 5,4 0,6 4 2 19 10 E 20 31 0,0
12.12.2019 11:00:00 4,3 1,9 1 1 16 8 NNE 20 49 0,0
12.12.2019 10:00:00 2,1 1,9 2 1 14 8 W 20 8 0,0
12.12.2019 09:00:00 0,9 0,6 4 2 14 8 NW 20 0 0,0
12.12.2019 08:00:00 0,9 0,4 1 0 15 8 E 20 0 0,0
12.12.2019 07:00:00 1,1 0,6 2 1 18 10 N 20 0 -
12.12.2019 06:00:00 1,2 0,4 2 1 16 8 E 16 0 0,2
12.12.2019 05:00:00 1,1 0,2 3 1 16 9 NW 12 0 0,4
12.12.2019 04:00:00 1,5 0,0 3 2 15 8 NW 20 0 0,2
12.12.2019 03:00:00 2,6 -1,0 5 3 24 13 SE 18 0 0,0
12.12.2019 02:00:00 3,6 -1,0 2 1 22 12 ESE 20 0 0,0
12.12.2019 01:00:00 3,8 -2,7 8 4 20 11 E 20 0 -
12.12.2019 00:00:00 3,7 -3,3 4 2 22 12 SSE 20 0 0,0
11.12.2019 23:00:00 2,6 -2,7 3 1 20 11 E 20 0 0,0
11.12.2019 22:00:00 2,2 -2,2 2 1 14 8 ESE 20 0 0,0
11.12.2019 21:00:00 1,9 -2,7 2 1 14 8 N 20 0 0,0
11.12.2019 20:00:00 2,1 -3,6 2 1 14 8 SE 20 0 0,0
11.12.2019 19:00:00 4,2 -4,2 3 1 27 14 NNE 20 0 -
11.12.2019 18:00:00 6,4 -6,7 15 8 37 20 NW 20 0 0,0
11.12.2019 17:00:00 6,8 -5,1 12 6 39 21 NW 20 0 0,0
11.12.2019 16:00:00 8,2 -3,3 17 9 43 23 NW 20 0 0,0
11.12.2019 15:00:00 9,0 -2,2 16 9 44 24 NNW 20 0 0,0
11.12.2019 14:00:00 9,0 0,4 15 8 27 14 NW 20 1 0,0
11.12.2019 13:00:00 7,1 2,7 12 6 41 22 NNW 20 0 -
11.12.2019 12:00:00 8,7 -2,0 4 2 17 9 SE 20 30 0,0
11.12.2019 11:00:00 6,3 -1,2 1 1 15 8 NW 20 2 0,0
11.12.2019 10:00:00 4,1 -2,0 3 2 16 9 NNW 20 3 0,0
11.12.2019 09:00:00 2,2 -1,7 3 2 16 9 NW 20 0 0,0
11.12.2019 08:00:00 3,3 -2,0 4 2 20 11 WNW 20 0 0,0
11.12.2019 07:00:00 3,0 -2,2 3 2 14 7 WNW 20 0 -
11.12.2019 06:00:00 2,6 -2,2 5 3 16 9 WNW 20 0 0,0
11.12.2019 05:00:00 2,5 -2,2 4 2 16 9 WNW 20 0 0,0
11.12.2019 04:00:00 3,6 -2,2 3 2 11 6 N 20 0 0,0
11.12.2019 03:00:00 3,5 -3,3 4 2 14 8 NW 20 0 0,0
11.12.2019 02:00:00 2,4 -3,6 2 1 15 8 ESE 20 0 0,0
11.12.2019 01:00:00 0,7 -3,3 3 2 16 9 NNW 20 0 -
11.12.2019 00:00:00 1,2 -3,6 3 2 16 8 NNW 20 0 0,0
10.12.2019 23:00:00 1,5 -3,9 3 2 16 9 NW 20 0 0,0
10.12.2019 22:00:00 1,8 -3,6 3 2 16 9 NNW 20 0 0,0
10.12.2019 21:00:00 2,9 -3,6 4 2 16 8 NNW 20 0 0,0
10.12.2019 20:00:00 4,1 -4,8 4 2 15 8 NNW 20 0 0,0
10.12.2019 19:00:00 3,4 -3,3 4 2 14 8 NNW 20 0 -
10.12.2019 18:00:00 4,1 -3,6 3 2 14 8 N 20 0 0,0
10.12.2019 17:00:00 6,2 -3,9 5 3 19 10 WNW 20 0 0,0
10.12.2019 16:00:00 9,0 -3,6 3 2 22 12 NNW 20 0 0,0
10.12.2019 15:00:00 11,4 -7,5 11 6 28 15 NNW 20 0 0,0
10.12.2019 14:00:00 13,8 -12,2 10 6 28 15 W 20 47 0,0
10.12.2019 13:00:00 15,4 -10,3 16 9 39 21 WNW 20 60 -
10.12.2019 12:00:00 15,1 -10,8 17 9 45 24 WNW 20 60 0,0
10.12.2019 11:00:00 13,8 -9,4 22 12 56 30 WNW 20 60 0,0
10.12.2019 10:00:00 12,6 -9,0 21 12 49 26 WNW 20 9 0,0
10.12.2019 09:00:00 10,6 -9,9 17 9 45 24 WNW 20 0 0,0
10.12.2019 08:00:00 7,2 -10,8 10 6 29 15 NNW 20 0 0,0
10.12.2019 07:00:00 8,2 -11,7 14 8 27 15 N 20 0 -
10.12.2019 06:00:00 7,0 -10,8 11 6 25 14 NNW 20 0 0,0
10.12.2019 05:00:00 7,6 -12,8 15 8 27 15 N 20 0 0,0
10.12.2019 04:00:00 7,0 -10,3 11 6 27 15 N 20 0 0,0
10.12.2019 03:00:00 7,0 -8,2 11 6 31 17 N 20 0 0,0
10.12.2019 02:00:00 6,9 -7,1 8 4 33 18 NNW 20 0 0,0
10.12.2019 01:00:00 6,6 -8,2 16 8 45 24 NW 20 0 -
10.12.2019 00:00:00 6,4 -7,1 15 8 37 20 NNW 20 0 0,0
09.12.2019 23:00:00 6,5 -4,5 10 5 23 12 NNW 20 0 0,0
09.12.2019 22:00:00 4,2 -2,7 3 2 18 10 NNW 20 0 0,0
09.12.2019 21:00:00 4,5 -2,5 3 1 16 9 SE 20 0 0,0
09.12.2019 20:00:00 6,3 -2,2 4 2 21 11 NNW 20 0 0,0
09.12.2019 19:00:00 5,9 -3,3 9 5 24 13 NNW 20 0 -
09.12.2019 18:00:00 6,5 -1,4 7 4 45 25 NNW 20 0 0,0
09.12.2019 17:00:00 7,4 -2,0 5 3 30 16 NNW 20 0 0,0
09.12.2019 16:00:00 6,7 0,2 8 5 35 19 NW 20 0 0,0
09.12.2019 15:00:00 7,5 -1,7 9 5 27 14 WNW 20 0 0,0
09.12.2019 14:00:00 8,7 -4,8 13 7 44 24 NW 20 41 0,0
09.12.2019 13:00:00 10,9 -6,0 22 12 50 27 NNW 20 53 -
09.12.2019 12:00:00 8,5 0,4 10 6 35 19 NW 20 30 0,0
09.12.2019 11:00:00 8,3 -0,3 16 9 41 22 WNW 20 27 0,0
09.12.2019 10:00:00 9,8 -3,6 14 8 52 28 NW 20 7 0,0
09.12.2019 09:00:00 9,1 -4,5 22 12 52 28 NNW 20 0 0,0
09.12.2019 08:00:00 8,8 -5,1 26 14 57 31 NNW 20 0 0,0
09.12.2019 07:00:00 6,7 -5,7 19 10 47 25 NW 20 0 -
09.12.2019 06:00:00 -0,8 -4,8 3 1 14 8 NNW 20 0 0,0
09.12.2019 05:00:00 -0,6 -4,5 4 2 19 11 N 20 0 0,0
09.12.2019 04:00:00 0,0 -5,1 5 3 19 10 NNE 20 0 0,0
09.12.2019 03:00:00 1,1 -5,4 5 3 22 12 NNW 20 0 0,0
09.12.2019 02:00:00 1,2 -4,2 6 3 16 9 NW 20 0 0,0
09.12.2019 01:00:00 2,9 -5,1 3 2 13 7 N 20 0 -
09.12.2019 00:00:00 5,9 -4,2 2 1 21 11 ESE 20 0 0,0
08.12.2019 23:00:00 10,1 -8,2 11 6 37 20 NNW 20 0 0,0
08.12.2019 22:00:00 11,0 -6,4 13 7 32 18 NW 20 0 0,0
08.12.2019 21:00:00 5,6 3,9 3 2 17 9 NNW 20 0 0,0
08.12.2019 20:00:00 5,8 3,9 4 2 19 10 NNW 20 0 0,0
08.12.2019 19:00:00 6,2 3,4 3 2 15 8 NE 20 0 -
08.12.2019 18:00:00 6,7 2,3 5 3 18 10 WNW 20 0 0,0
08.12.2019 17:00:00 6,8 2,7 5 3 14 8 NNW 20 0 0,0
08.12.2019 16:00:00 7,5 2,1 4 2 16 8 NNW 20 0 0,0
08.12.2019 15:00:00 7,3 1,5 6 3 17 9 WNW 20 0 0,0
08.12.2019 14:00:00 7,1 1,7 6 3 13 7 NW 20 47 0,0
08.12.2019 13:00:00 9,6 1,3 3 2 13 7 WNW 20 60 -
08.12.2019 12:00:00 7,6 0,6 3 2 13 7 WNW 20 60 0,0
08.12.2019 11:00:00 5,0 0,9 5 3 16 8 WNW 20 60 0,0
08.12.2019 10:00:00 0,2 -0,3 3 2 16 9 ESE 20 11 0,0
08.12.2019 09:00:00 -1,0 -1,4 5 3 15 8 WNW 20 0 0,0
08.12.2019 08:00:00 -0,9 -1,4 4 2 15 8 WNW 20 0 0,0
08.12.2019 07:00:00 -0,6 -1,2 2 1 16 9 N 20 0 -
08.12.2019 06:00:00 -0,5 -1,2 3 2 16 9 NW 20 0 0,0
08.12.2019 05:00:00 -0,2 -0,5 4 2 14 8 NW 20 0 0,0
08.12.2019 04:00:00 -0,2 -0,7 3 1 18 10 NNW 20 0 0,0
08.12.2019 03:00:00 -0,1 -0,7 2 1 14 7 NNW 20 0 0,0
08.12.2019 02:00:00 0,1 -0,3 3 2 14 7 NW 20 0 0,0
08.12.2019 01:00:00 -0,1 -0,5 1 1 15 8 N 20 0 -
08.12.2019 00:00:00 0,1 -0,3 3 1 14 8 N 20 0 0,0
07.12.2019 23:00:00 0,4 -0,3 2 1 16 9 NW 20 0 0,0
07.12.2019 22:00:00 0,6 0,0 4 2 15 8 NW 20 0 0,0
07.12.2019 21:00:00 1,1 0,0 2 1 14 8 NNW 20 0 0,0
07.12.2019 20:00:00 1,9 0,6 5 3 13 7 WNW 20 0 0,0
07.12.2019 19:00:00 2,1 0,9 3 2 12 7 WNW 20 0 -
07.12.2019 18:00:00 2,7 1,1 3 2 11 6 NW 20 0 0,0
07.12.2019 17:00:00 3,8 1,3 5 3 13 7 NW 20 0 0,0
07.12.2019 16:00:00 4,8 1,7 6 4 15 8 WNW 20 0 0,0
07.12.2019 15:00:00 5,9 2,1 4 2 11 6 WNW 20 0 0,0
07.12.2019 14:00:00 7,2 2,3 7 4 11 6 NW 20 47 0,0
07.12.2019 13:00:00 9,8 2,7 4 2 9 5 WNW 20 60 -
07.12.2019 12:00:00 8,9 2,9 2 1 13 7 SW 20 60 0,0
07.12.2019 11:00:00 5,6 1,9 3 2 14 8 W 20 60 0,0
07.12.2019 10:00:00 0,8 0,4 1 1 14 7 WSW 20 11 0,0
07.12.2019 09:00:00 -0,7 -1,2 3 2 16 9 WNW 20 0 0,0
07.12.2019 08:00:00 -0,7 -1,0 5 3 15 8 WNW 20 0 0,0
07.12.2019 07:00:00 -1,4 -1,7 2 1 14 8 NE 20 0 -
07.12.2019 06:00:00 -1,0 -1,2 4 2 16 9 NW 20 0 0,0
07.12.2019 05:00:00 -0,9 -1,2 1 1 18 10 N 20 0 0,0
07.12.2019 04:00:00 -0,8 -1,2 3 1 14 8 NW 20 0 0,0
07.12.2019 03:00:00 -0,3 -1,2 2 1 14 8 NNW 20 0 0,0
07.12.2019 02:00:00 0,8 0,2 7 4 19 11 N 20 0 0,0
07.12.2019 01:00:00 0,7 0,0 6 3 16 9 NW 20 0 -
07.12.2019 00:00:00 0,3 -0,5 3 2 16 9 NW 20 0 0,0
06.12.2019 23:00:00 0,8 0,0 4 2 13 7 NW 20 0 0,0
06.12.2019 22:00:00 0,7 0,0 2 1 14 8 NNE 20 0 0,0
06.12.2019 21:00:00 1,1 0,2 4 2 14 8 NNW 20 0 0,0
06.12.2019 20:00:00 1,7 0,6 4 2 14 8 NNW 20 0 0,0
06.12.2019 19:00:00 2,5 0,9 4 2 14 8 NW 20 0 -
06.12.2019 18:00:00 3,9 1,3 6 3 16 9 WNW 20 0 0,0
06.12.2019 17:00:00 5,8 1,9 9 5 18 10 NW 20 0 0,0

tt = temperature
td = dewpoint
ff = wind speed
fx = gusts
dd = wind direction
vv = visibility
sd = sunshine duration
rr = precipitation

Next stations